createdAt,value
2023-05-13T00:01:53.564Z,6.70
2023-05-13T00:04:20.483Z,6.80
2023-05-13T00:06:47.483Z,6.50
2023-05-13T00:09:14.448Z,7.30
2023-05-13T00:11:41.365Z,6.80
2023-05-13T00:14:10.505Z,6.90
2023-05-13T00:16:37.824Z,7.50
2023-05-13T00:19:04.899Z,7.90
2023-05-13T00:21:32.343Z,7.20
2023-05-13T00:23:59.388Z,7.70
2023-05-13T00:26:26.319Z,7.60
2023-05-13T00:28:53.399Z,6.90
2023-05-13T00:31:20.308Z,7.40
2023-05-13T00:33:47.352Z,7.60
2023-05-13T00:36:14.613Z,7.70
2023-05-13T00:38:43.914Z,7.90
2023-05-13T00:41:11.922Z,8.10
2023-05-13T00:43:38.873Z,7.60
2023-05-13T00:46:06.343Z,8.40
2023-05-13T00:48:33.631Z,7.90
2023-05-13T00:51:00.964Z,8.30
2023-05-13T00:53:27.835Z,6.90
2023-05-13T00:55:54.908Z,7.40
2023-05-13T00:58:21.958Z,7.00
2023-05-13T01:01:18.086Z,8.20
2023-05-13T01:04:03.850Z,7.40
2023-05-13T01:06:37.161Z,7.40
2023-05-13T01:09:27.222Z,7.80
2023-05-13T01:11:54.206Z,8.10
2023-05-13T01:14:26.920Z,7.70
2023-05-13T01:16:56.772Z,8.10
2023-05-13T01:19:26.970Z,7.40
2023-05-13T01:21:54.657Z,9.10
2023-05-13T01:24:21.673Z,7.10
2023-05-13T01:26:49.567Z,6.90
2023-05-13T01:29:16.839Z,7.10
2023-05-13T01:31:44.130Z,7.10
2023-05-13T01:34:11.629Z,7.70
2023-05-13T01:36:39.666Z,8.00
2023-05-13T01:39:06.989Z,7.70
2023-05-13T01:41:34.127Z,7.30
2023-05-13T01:46:43.487Z,8.00
2023-05-13T01:49:11.091Z,8.10
2023-05-13T01:51:41.618Z,7.50
2023-05-13T01:54:11.871Z,7.50
2023-05-13T01:56:40.897Z,7.10
2023-05-13T01:59:11.892Z,6.80
2023-05-13T02:01:49.075Z,7.40
2023-05-13T02:04:15.985Z,7.10
2023-05-13T02:06:43.262Z,7.20
2023-05-13T02:09:11.115Z,7.50
2023-05-13T02:11:40.281Z,7.40
2023-05-13T02:14:08.299Z,7.90
2023-05-13T02:16:35.311Z,7.50
2023-05-13T02:19:09.423Z,8.30
2023-05-13T02:21:43.640Z,8.40
2023-05-13T02:24:11.155Z,8.20
2023-05-13T02:26:38.965Z,8.10
2023-05-13T02:29:12.616Z,7.30
2023-05-13T02:31:41.333Z,7.20
2023-05-13T02:34:13.713Z,7.30
2023-05-13T02:36:42.703Z,7.20
2023-05-13T02:39:22.041Z,8.20
2023-05-13T02:42:03.801Z,8.30
2023-05-13T02:44:38.930Z,6.90
2023-05-13T02:47:12.354Z,7.90
2023-05-13T02:49:39.515Z,8.20
2023-05-13T02:52:08.691Z,7.90
2023-05-13T02:54:36.153Z,8.00
2023-05-13T02:57:03.365Z,7.30
2023-05-13T03:02:14.726Z,7.20
2023-05-13T03:04:41.647Z,6.40
2023-05-13T03:07:11.979Z,7.70
2023-05-13T03:09:42.050Z,7.40
2023-05-13T03:12:23.808Z,6.60
2023-05-13T03:14:50.856Z,7.60
2023-05-13T03:17:17.798Z,7.40
2023-05-13T03:19:46.744Z,7.30
2023-05-13T03:22:15.565Z,7.80
2023-05-13T03:24:43.331Z,7.40
2023-05-13T03:27:23.884Z,7.80
2023-05-13T03:29:56.981Z,7.70
2023-05-13T03:32:30.585Z,7.00
2023-05-13T03:35:01.111Z,8.20
2023-05-13T03:37:29.877Z,8.40
2023-05-13T03:39:58.134Z,7.40
2023-05-13T03:42:26.490Z,8.30
2023-05-13T03:44:57.355Z,7.30
2023-05-13T03:47:25.037Z,8.00
2023-05-13T03:49:52.404Z,8.40
2023-05-13T03:52:20.308Z,7.90
2023-05-13T03:54:48.312Z,7.20
2023-05-13T03:57:15.427Z,7.40
2023-05-13T03:59:42.764Z,6.90
2023-05-13T04:02:09.684Z,7.10
2023-05-13T04:04:37.125Z,5.90
2023-05-13T04:07:04.233Z,5.50
2023-05-13T04:09:31.118Z,5.10
2023-05-13T04:11:58.103Z,5.80
2023-05-13T04:14:24.943Z,5.20
2023-05-13T04:16:51.831Z,5.60
2023-05-13T04:19:19.145Z,5.40
2023-05-13T04:21:46.591Z,5.00
2023-05-13T04:24:13.463Z,5.20
2023-05-13T04:26:40.374Z,5.40
2023-05-13T04:29:07.497Z,4.70
2023-05-13T04:31:34.506Z,4.30
2023-05-13T04:34:01.477Z,5.00
2023-05-13T04:36:28.403Z,5.50
2023-05-13T04:38:56.460Z,4.50
2023-05-13T04:41:23.495Z,4.50
2023-05-13T04:43:50.387Z,4.80
2023-05-13T04:46:17.431Z,4.90
2023-05-13T04:48:48.398Z,5.10
2023-05-13T04:51:16.402Z,4.40
2023-05-13T04:53:43.684Z,4.70
2023-05-13T04:56:10.851Z,4.80
2023-05-13T04:58:38.050Z,4.30
2023-05-13T05:01:05.231Z,4.30
2023-05-13T05:03:32.946Z,4.40
2023-05-13T05:06:00.001Z,4.30
2023-05-13T05:08:28.848Z,4.70
2023-05-13T05:11:23.872Z,4.60
2023-05-13T05:13:55.301Z,4.30
2023-05-13T05:16:27.854Z,4.80
2023-05-13T05:18:55.329Z,4.70
2023-05-13T05:21:23.895Z,4.80
2023-05-13T05:23:50.905Z,3.80
2023-05-13T05:26:18.468Z,4.00
2023-05-13T05:28:45.543Z,3.60
2023-05-13T05:31:13.360Z,3.90
2023-05-13T05:33:40.419Z,4.10
2023-05-13T05:36:07.992Z,2.90
2023-05-13T05:38:35.840Z,3.90
2023-05-13T05:41:03.251Z,3.50
2023-05-13T05:43:30.896Z,3.00
2023-05-13T05:45:57.896Z,5.10
2023-05-13T05:48:25.678Z,4.90
2023-05-13T05:50:53.320Z,4.70
2023-05-13T05:53:26.309Z,3.50
2023-05-13T05:55:53.880Z,3.60
2023-05-13T05:58:21.377Z,3.70
2023-05-13T06:00:48.745Z,4.60
2023-05-13T06:03:16.161Z,3.40
2023-05-13T06:05:43.177Z,3.90
2023-05-13T06:08:10.158Z,3.20
2023-05-13T06:10:38.644Z,3.50
2023-05-13T06:13:05.787Z,4.30
2023-05-13T06:17:10.193Z,3.60
2023-05-13T06:30:38.194Z,3.70
2023-05-13T06:33:05.626Z,3.50
2023-05-13T06:35:32.592Z,3.10
2023-05-13T06:38:00.953Z,3.00
2023-05-13T06:40:28.326Z,3.10
2023-05-13T06:42:55.902Z,3.00
2023-05-13T06:45:29.062Z,3.30
2023-05-13T06:47:56.645Z,3.00
2023-05-13T06:50:24.000Z,3.20
2023-05-13T06:52:51.363Z,2.90
2023-05-13T06:55:19.209Z,2.90
2023-05-13T06:57:47.482Z,2.80
2023-05-13T07:00:15.406Z,3.10
2023-05-13T07:02:42.297Z,3.20
2023-05-13T07:05:11.390Z,2.70
2023-05-13T07:07:38.675Z,2.40
2023-05-13T07:10:06.092Z,2.30
2023-05-13T07:12:33.236Z,2.60
2023-05-13T07:15:00.187Z,2.60
2023-05-13T07:17:27.107Z,2.10
2023-05-13T07:19:54.355Z,2.40
2023-05-13T07:22:21.349Z,2.30
2023-05-13T07:24:48.145Z,2.10
2023-05-13T07:27:15.185Z,2.00
2023-05-13T07:29:42.142Z,2.10
2023-05-13T07:32:09.000Z,1.80
2023-05-13T07:34:36.004Z,1.60
2023-05-13T07:37:04.664Z,1.80
2023-05-13T07:39:31.497Z,1.60
2023-05-13T07:41:58.911Z,1.60
2023-05-13T07:44:26.243Z,1.80
2023-05-13T07:46:53.854Z,2.00
2023-05-13T07:49:21.157Z,1.90
2023-05-13T07:51:47.988Z,1.70
2023-05-13T07:54:14.817Z,1.50
2023-05-13T07:56:44.205Z,1.30
2023-05-13T07:59:11.189Z,1.60
2023-05-13T08:01:38.178Z,1.70
2023-05-13T08:04:05.307Z,1.40
2023-05-13T08:06:33.164Z,1.90
2023-05-13T08:09:00.249Z,1.90
2023-05-13T08:11:27.986Z,1.60
2023-05-13T08:13:55.051Z,1.50
2023-05-13T08:16:21.898Z,1.60
2023-05-13T08:18:48.962Z,1.50
2023-05-13T08:21:15.985Z,1.70
2023-05-13T08:23:45.954Z,1.30
2023-05-13T08:26:13.836Z,1.70
2023-05-13T08:28:42.430Z,1.80
2023-05-13T08:31:12.954Z,1.90
2023-05-13T08:33:42.059Z,1.90
2023-05-13T08:36:09.533Z,1.90
2023-05-13T08:38:36.422Z,1.40
2023-05-13T08:41:06.649Z,1.30
2023-05-13T08:43:33.870Z,1.20
2023-05-13T08:46:04.448Z,1.50
2023-05-13T08:48:32.104Z,1.30
2023-05-13T08:50:59.164Z,1.70
2023-05-13T08:53:26.894Z,1.40
2023-05-13T08:55:54.529Z,1.60
2023-05-13T08:58:21.458Z,1.40
2023-05-13T09:00:51.919Z,1.30
2023-05-13T09:03:19.605Z,1.30
2023-05-13T09:05:46.577Z,1.50
2023-05-13T09:08:13.485Z,1.30
2023-05-13T09:10:40.522Z,1.20
2023-05-13T09:13:07.577Z,1.30
2023-05-13T09:15:34.577Z,1.50
2023-05-13T09:18:05.398Z,1.50
2023-05-13T09:20:32.585Z,1.40
2023-05-13T09:23:07.294Z,1.20
2023-05-13T09:25:34.416Z,1.10
2023-05-13T09:28:02.616Z,1.30
2023-05-13T09:30:33.880Z,1.30
2023-05-13T09:33:05.062Z,1.10
2023-05-13T09:35:32.320Z,1.30
2023-05-13T09:37:59.283Z,1.10
2023-05-13T09:40:26.309Z,1.20
2023-05-13T09:42:56.988Z,1.50
2023-05-13T09:45:23.983Z,1.30
2023-05-13T09:47:52.497Z,1.40
2023-05-13T09:50:19.888Z,1.40
2023-05-13T09:52:46.988Z,0.90
2023-05-13T09:55:14.043Z,1.70
2023-05-13T09:57:41.116Z,1.20
2023-05-13T10:00:17.829Z,1.50
2023-05-13T10:02:52.224Z,1.50
2023-05-13T10:05:19.242Z,1.40
2023-05-13T10:07:46.168Z,1.50
2023-05-13T10:10:13.142Z,1.50
2023-05-13T10:12:40.175Z,1.30
2023-05-13T10:15:07.408Z,1.50
2023-05-13T10:17:34.673Z,1.80
2023-05-13T10:20:02.031Z,1.60
2023-05-13T10:22:30.178Z,1.40
2023-05-13T10:25:00.520Z,1.40
2023-05-13T10:27:29.722Z,1.00
2023-05-13T10:29:57.755Z,1.20
2023-05-13T10:32:25.724Z,1.90
2023-05-13T10:35:28.127Z,1.50
2023-05-13T10:38:04.120Z,1.50
2023-05-13T10:40:59.300Z,1.50
2023-05-13T10:43:30.132Z,1.70
2023-05-13T10:46:01.328Z,1.20
2023-05-13T10:48:47.776Z,1.60
2023-05-13T10:51:15.377Z,1.40
2023-05-13T10:53:49.947Z,1.90
2023-05-13T10:56:24.403Z,1.50
2023-05-13T10:58:59.419Z,1.60
2023-05-13T11:01:29.761Z,1.30
2023-05-13T11:04:04.225Z,1.20
2023-05-13T11:06:35.620Z,1.50
2023-05-13T11:09:05.901Z,1.30
2023-05-13T11:11:34.175Z,1.60
2023-05-13T11:14:21.018Z,1.40
2023-05-13T11:17:00.442Z,1.50
2023-05-13T11:19:35.079Z,1.30
2023-05-13T11:22:16.777Z,1.20
2023-05-13T11:25:08.960Z,1.40
2023-05-13T11:27:42.579Z,1.50
2023-05-13T11:30:42.194Z,1.30
2023-05-13T11:33:12.448Z,1.30
2023-05-13T11:35:39.454Z,1.30
2023-05-13T11:38:06.615Z,1.20
2023-05-13T11:40:34.482Z,1.30
2023-05-13T11:43:01.427Z,1.40
2023-05-13T11:45:29.677Z,1.40
2023-05-13T11:47:57.504Z,1.50
2023-05-13T11:50:32.717Z,1.20
2023-05-13T11:53:00.361Z,1.20
2023-05-13T11:55:36.203Z,1.70
2023-05-13T11:58:03.283Z,1.10
2023-05-13T12:00:31.539Z,1.20
2023-05-13T12:02:58.960Z,1.40
2023-05-13T12:05:26.868Z,1.50
2023-05-13T12:07:58.248Z,1.10
2023-05-13T12:10:26.097Z,1.50
2023-05-13T12:12:53.133Z,1.30
2023-05-13T12:15:21.166Z,1.60
2023-05-13T12:17:48.451Z,1.30
2023-05-13T12:20:19.682Z,1.00
2023-05-13T12:22:46.952Z,1.50
2023-05-13T12:25:32.961Z,1.20
2023-05-13T12:28:00.166Z,1.30
2023-05-13T12:30:34.115Z,1.60
2023-05-13T12:33:01.325Z,1.10
2023-05-13T12:35:28.417Z,1.60
2023-05-13T12:38:03.291Z,1.20
2023-05-13T12:40:30.699Z,1.30
2023-05-13T12:42:58.716Z,1.40
2023-05-13T12:45:30.117Z,1.30
2023-05-13T12:47:57.358Z,1.40
2023-05-13T12:50:24.656Z,1.30
2023-05-13T12:52:52.792Z,1.30
2023-05-13T12:55:19.899Z,1.10
2023-05-13T12:57:57.119Z,1.70
2023-05-13T13:00:24.428Z,1.40
2023-05-13T13:02:53.538Z,1.20
2023-05-13T13:05:21.737Z,1.50
2023-05-13T13:07:49.168Z,1.50
2023-05-13T13:10:16.106Z,1.20
2023-05-13T13:12:43.410Z,1.40
2023-05-13T13:15:11.164Z,1.40
2023-05-13T13:17:38.154Z,1.50
2023-05-13T13:20:07.644Z,1.00
2023-05-13T13:22:37.229Z,1.30
2023-05-13T13:25:06.004Z,1.00
2023-05-13T13:27:33.785Z,1.40
2023-05-13T13:30:00.897Z,1.20
2023-05-13T13:32:27.943Z,1.40
2023-05-13T13:34:55.004Z,1.20
2023-05-13T13:37:22.178Z,1.50
2023-05-13T13:39:49.170Z,1.70
2023-05-13T13:42:16.240Z,1.30
2023-05-13T13:44:43.082Z,1.10
2023-05-13T13:47:09.941Z,1.30
2023-05-13T13:49:36.995Z,1.40
2023-05-13T13:52:04.126Z,1.30
2023-05-13T13:54:31.009Z,1.50
2023-05-13T13:56:57.870Z,1.50
2023-05-13T13:59:24.896Z,1.20
2023-05-13T14:01:53.026Z,1.10
2023-05-13T14:04:20.529Z,1.40
2023-05-13T14:06:47.568Z,1.40
2023-05-13T14:09:14.972Z,1.60
2023-05-13T14:11:42.011Z,1.40
2023-05-13T14:14:09.259Z,1.30
2023-05-13T14:16:36.478Z,1.60
2023-05-13T14:19:03.673Z,1.40
2023-05-13T14:21:32.467Z,1.60
2023-05-13T14:23:59.428Z,1.60
2023-05-13T14:26:26.564Z,1.30
2023-05-13T14:28:54.398Z,1.30
2023-05-13T14:31:21.401Z,1.50
2023-05-13T14:33:48.483Z,1.30
2023-05-13T14:36:16.409Z,1.50
2023-05-13T14:38:43.808Z,1.10
2023-05-13T14:41:11.150Z,1.40
2023-05-13T14:43:38.069Z,1.70
2023-05-13T14:46:05.223Z,1.30
2023-05-13T14:48:32.231Z,1.50
2023-05-13T14:50:59.213Z,1.60
2023-05-13T14:53:26.394Z,1.20
2023-05-13T14:55:53.673Z,1.50
2023-05-13T14:58:20.625Z,1.40
2023-05-13T15:00:48.812Z,1.60
2023-05-13T15:03:15.873Z,1.20
2023-05-13T15:05:44.227Z,1.50
2023-05-13T15:08:11.369Z,1.70
2023-05-13T15:10:38.689Z,1.40
2023-05-13T15:13:05.706Z,1.40
2023-05-13T15:15:33.774Z,1.20
2023-05-13T15:18:00.849Z,1.50
2023-05-13T15:20:28.653Z,1.50
2023-05-13T15:22:55.893Z,1.40
2023-05-13T15:25:22.941Z,1.40
2023-05-13T15:27:51.425Z,1.50
2023-05-13T15:30:18.399Z,1.40
2023-05-13T15:32:45.359Z,1.50
2023-05-13T15:35:12.427Z,1.30
2023-05-13T15:37:42.681Z,1.80
2023-05-13T15:40:10.107Z,1.40
2023-05-13T15:42:37.007Z,1.70
2023-05-13T15:45:04.512Z,1.50
2023-05-13T15:47:31.611Z,1.40
2023-05-13T15:49:59.181Z,1.60
2023-05-13T15:52:26.057Z,1.50
2023-05-13T15:54:53.021Z,1.40
2023-05-13T15:57:20.043Z,1.50
2023-05-13T15:59:47.090Z,1.70
2023-05-13T16:02:14.200Z,1.60
2023-05-13T16:04:41.260Z,1.60
2023-05-13T16:07:11.102Z,1.60
2023-05-13T16:09:39.043Z,1.60
2023-05-13T16:12:06.292Z,1.30
2023-05-13T16:14:33.253Z,1.20
2023-05-13T16:17:00.797Z,2.10
2023-05-13T16:19:27.691Z,1.50
2023-05-13T16:21:54.540Z,1.80
2023-05-13T16:24:22.593Z,1.60
2023-05-13T16:26:49.700Z,1.70
2023-05-13T16:29:16.711Z,1.10
2023-05-13T16:31:43.828Z,1.60
2023-05-13T16:34:10.765Z,1.70
2023-05-13T16:36:37.737Z,1.50
2023-05-13T16:39:05.354Z,1.80
2023-05-13T16:41:33.322Z,1.50
2023-05-13T16:44:00.275Z,1.70
2023-05-13T16:46:27.374Z,1.70
2023-05-13T16:48:54.761Z,1.70
2023-05-13T16:51:23.040Z,1.60
2023-05-13T16:53:49.930Z,1.80
2023-05-13T16:56:16.777Z,1.40
2023-05-13T16:58:43.878Z,1.40
2023-05-13T17:01:11.068Z,1.70
2023-05-13T17:03:38.067Z,1.50
2023-05-13T17:06:07.301Z,1.90
2023-05-13T17:08:34.230Z,1.80
2023-05-13T17:11:01.060Z,1.70
2023-05-13T17:13:27.855Z,1.90
2023-05-13T17:15:54.768Z,2.30
2023-05-13T17:18:21.661Z,2.30
2023-05-13T17:20:48.762Z,3.10
2023-05-13T17:23:17.321Z,2.90
2023-05-13T17:25:44.191Z,2.30
2023-05-13T17:28:11.794Z,2.80
2023-05-13T17:30:38.715Z,3.00
2023-05-13T17:33:05.780Z,3.30
2023-05-13T17:35:32.727Z,2.90
2023-05-13T17:37:59.589Z,3.20
2023-05-13T17:40:26.410Z,2.30
2023-05-13T17:42:53.320Z,2.90
2023-05-13T17:45:20.504Z,3.20
2023-05-13T17:47:47.572Z,3.50
2023-05-13T17:50:15.096Z,2.90
2023-05-13T17:52:42.176Z,3.60
2023-05-13T17:55:09.434Z,3.70
2023-05-13T17:57:36.465Z,4.10
2023-05-13T18:00:07.071Z,3.60
2023-05-13T18:02:36.268Z,4.20
2023-05-13T18:05:03.757Z,3.60
2023-05-13T18:07:30.930Z,3.10
2023-05-13T18:09:58.074Z,4.00
2023-05-13T18:12:29.299Z,3.40
2023-05-13T18:14:56.439Z,4.10
2023-05-13T18:17:23.336Z,4.40
2023-05-13T18:19:50.555Z,4.30
2023-05-13T18:22:17.569Z,4.10
2023-05-13T18:24:44.458Z,4.40
2023-05-13T18:27:11.310Z,4.40
2023-05-13T18:29:38.304Z,4.60
2023-05-13T18:32:05.646Z,4.80
2023-05-13T18:34:33.205Z,4.40
2023-05-13T18:38:18.738Z,4.40
2023-05-13T18:40:45.596Z,4.60
2023-05-13T18:43:12.899Z,4.60
2023-05-13T18:45:39.949Z,4.40
2023-05-13T18:48:06.889Z,4.80
2023-05-13T18:50:33.950Z,4.60
2023-05-13T18:53:01.042Z,4.00
2023-05-13T18:55:28.043Z,4.10
2023-05-13T18:57:55.028Z,4.10
2023-05-13T19:00:22.216Z,4.30
2023-05-13T19:02:49.504Z,3.60
2023-05-13T19:05:17.510Z,3.40
2023-05-13T19:07:46.146Z,3.60
2023-05-13T19:10:13.195Z,3.50
2023-05-13T19:12:40.226Z,4.30
2023-05-13T19:15:07.794Z,4.00
2023-05-13T19:17:35.224Z,4.30
2023-05-13T19:20:02.358Z,4.50
2023-05-13T19:22:29.339Z,4.70
2023-05-13T19:24:56.112Z,4.40
2023-05-13T19:27:22.992Z,4.70
2023-05-13T19:29:50.300Z,5.00
2023-05-13T19:32:17.616Z,5.00
2023-05-13T19:34:44.490Z,4.90
2023-05-13T19:37:11.514Z,4.50
2023-05-13T19:39:38.438Z,5.30
2023-05-13T19:42:06.276Z,5.10
2023-05-13T19:44:34.213Z,5.60
2023-05-13T19:47:01.417Z,5.00
2023-05-13T19:49:28.364Z,5.10
2023-05-13T19:51:55.630Z,5.50
2023-05-13T19:54:22.625Z,5.50
2023-05-13T19:56:49.534Z,6.50
2023-05-13T19:59:16.538Z,6.80
2023-05-13T20:01:43.691Z,6.40
2023-05-13T20:04:10.662Z,6.50
2023-05-13T20:06:37.645Z,8.70
2023-05-13T20:09:04.693Z,8.60
2023-05-13T20:11:31.873Z,8.60
2023-05-13T20:13:59.521Z,8.10
2023-05-13T20:16:26.680Z,8.90
2023-05-13T20:18:53.593Z,8.30
2023-05-13T20:21:20.751Z,8.40
2023-05-13T20:23:47.842Z,8.30
2023-05-13T20:26:14.880Z,7.60
2023-05-13T20:28:41.740Z,7.30
2023-05-13T20:31:08.686Z,6.70
2023-05-13T20:33:35.683Z,6.40
2023-05-13T20:36:02.620Z,6.40
2023-05-13T20:38:29.775Z,7.00
2023-05-13T20:40:56.878Z,6.70
2023-05-13T20:43:23.837Z,6.80
2023-05-13T20:45:51.206Z,7.70
2023-05-13T20:48:18.179Z,7.90
2023-05-13T20:50:45.022Z,8.10
2023-05-13T20:53:11.923Z,8.30
2023-05-13T20:55:38.989Z,9.00
2023-05-13T20:58:06.008Z,8.00
2023-05-13T21:00:32.849Z,8.40
2023-05-13T21:03:00.030Z,7.90
2023-05-13T21:05:27.151Z,8.00
2023-05-13T21:07:54.259Z,6.80
2023-05-13T21:10:21.695Z,8.50
2023-05-13T21:12:48.814Z,9.20
2023-05-13T21:15:16.907Z,8.40
2023-05-13T21:17:44.062Z,9.10
2023-05-13T21:20:11.913Z,9.70
2023-05-13T21:22:38.790Z,9.70
2023-05-13T21:25:06.697Z,10.10
2023-05-13T21:27:33.589Z,9.10
2023-05-13T21:30:00.725Z,8.60
2023-05-13T21:32:27.678Z,8.40
2023-05-13T21:34:55.395Z,8.40
2023-05-13T21:37:22.407Z,8.30
2023-05-13T21:39:49.496Z,9.20
2023-05-13T21:42:16.536Z,8.90
2023-05-13T21:44:43.576Z,8.40
2023-05-13T21:47:10.626Z,9.10
2023-05-13T21:49:37.530Z,8.90
2023-05-13T21:52:04.671Z,9.80
2023-05-13T21:54:31.697Z,9.20
2023-05-13T21:56:58.725Z,8.10
2023-05-13T21:59:25.802Z,8.90
2023-05-13T22:01:52.738Z,8.90
2023-05-13T22:04:19.702Z,8.40
2023-05-13T22:06:46.828Z,9.40
2023-05-13T22:09:13.775Z,8.90
2023-05-13T22:11:40.716Z,8.20
2023-05-13T22:14:07.910Z,8.70
2023-05-13T22:16:34.932Z,8.50
2023-05-13T22:19:04.640Z,9.30
2023-05-13T22:21:32.504Z,8.70
2023-05-13T22:23:59.517Z,8.20
2023-05-13T22:26:26.340Z,8.30
2023-05-13T22:28:53.354Z,8.90
2023-05-13T22:31:20.400Z,8.50
2023-05-13T22:33:47.470Z,8.60
2023-05-13T22:36:14.411Z,8.50
2023-05-13T22:38:44.423Z,8.70
2023-05-13T22:41:11.868Z,8.50
2023-05-13T22:43:38.819Z,8.90
2023-05-13T22:46:05.740Z,8.80
2023-05-13T22:48:32.744Z,9.10
2023-05-13T22:50:59.696Z,9.70
2023-05-13T22:53:26.841Z,8.70
2023-05-13T22:55:53.844Z,9.30
2023-05-13T22:58:20.981Z,9.90
2023-05-13T23:00:49.073Z,9.20
2023-05-13T23:03:16.100Z,9.60
2023-05-13T23:05:43.119Z,9.70
2023-05-13T23:08:10.164Z,10.00
2023-05-13T23:10:37.094Z,10.80
2023-05-13T23:13:05.821Z,9.20
2023-05-13T23:15:33.394Z,9.00
2023-05-13T23:18:00.563Z,10.30
2023-05-13T23:20:27.516Z,9.40
2023-05-13T23:22:55.234Z,9.60
2023-05-13T23:25:22.170Z,9.80
2023-05-13T23:27:49.061Z,10.20
2023-05-13T23:30:16.852Z,9.60
2023-05-13T23:32:43.908Z,10.60
2023-05-13T23:35:11.012Z,10.10
2023-05-13T23:37:37.870Z,9.50
2023-05-13T23:40:05.746Z,9.70
2023-05-13T23:42:32.876Z,9.10
2023-05-13T23:44:59.816Z,10.10
2023-05-13T23:47:26.850Z,10.40
2023-05-13T23:49:53.821Z,9.60
2023-05-13T23:52:20.827Z,8.70
2023-05-13T23:54:47.729Z,10.40
2023-05-13T23:57:14.693Z,9.60
2023-05-13T23:59:41.569Z,9.50
